Time;durP1;ratioP1;P1;durP2;ratioP2;P2;SDS_P1;SDS_P2;PMS_P1;PMS_P2;Temp;Humidity;BMP_temperature;BMP_pressure;BME280_temperature;BME280_humidity;BME280_pressure;Samples;Min_cycle;Max_cycle;Signal;HPM_P1;HPM_P2
2022/02/20 00:01:12;;;;;;;12.63;2.55;;;4.20;91.20;;;;;;4993947;28;20069;-74
2022/02/20 00:03:41;;;;;;;16.02;2.60;;;4.30;91.10;;;;;;4994083;28;20388;-76
2022/02/20 00:06:09;;;;;;;10.43;1.90;;;4.40;91.20;;;;;;4994190;28;20049;-74
2022/02/20 00:08:36;;;;;;;16.38;2.33;;;4.50;91.20;;;;;;4980984;28;20046;-74
2022/02/20 00:11:04;;;;;;;13.43;2.22;;;4.60;91.20;;;;;;4992673;28;20046;-73
2022/02/20 00:13:32;;;;;;;15.00;2.13;;;4.70;91.30;;;;;;4994442;28;20053;-73
2022/02/20 00:15:59;;;;;;;12.63;1.63;;;4.80;91.30;;;;;;4993878;28;20047;-73
2022/02/20 00:18:27;;;;;;;19.02;2.85;;;4.80;91.30;;;;;;4994274;28;20046;-73
2022/02/20 00:20:55;;;;;;;10.90;2.25;;;4.90;91.40;;;;;;4992744;28;20046;-73
2022/02/20 00:23:22;;;;;;;14.43;2.60;;;5.00;91.40;;;;;;4993089;28;20053;-73
2022/02/20 00:25:50;;;;;;;17.80;2.08;;;5.00;91.40;;;;;;4993183;28;20047;-73
2022/02/20 00:28:18;;;;;;;18.95;2.67;;;5.10;91.40;;;;;;4992165;28;20412;-73
2022/02/20 00:30:46;;;;;;;22.50;3.10;;;5.20;91.50;;;;;;4993678;28;20038;-73
2022/02/20 00:33:14;;;;;;;11.02;2.55;;;5.20;91.50;;;;;;4991577;28;20487;-73
2022/02/20 00:35:42;;;;;;;12.43;2.60;;;5.30;91.60;;;;;;4983037;28;20053;-74
2022/02/20 00:38:11;;;;;;;16.67;2.47;;;5.30;91.60;;;;;;4989752;28;21670;-73
2022/02/20 00:40:39;;;;;;;17.95;3.08;;;5.30;91.60;;;;;;4991780;28;20065;-73
2022/02/20 00:43:08;;;;;;;16.52;3.03;;;5.40;91.60;;;;;;4991769;28;20038;-73
2022/02/20 00:45:36;;;;;;;19.38;3.33;;;5.50;91.60;;;;;;4993053;28;20058;-73
2022/02/20 00:48:04;;;;;;;13.10;2.60;;;5.50;91.70;;;;;;4974359;28;20062;-74
2022/02/20 00:50:32;;;;;;;13.65;3.03;;;5.60;91.70;;;;;;4982038;28;20053;-74
2022/02/20 00:53:01;;;;;;;22.45;3.15;;;5.70;91.90;;;;;;4990935;28;20047;-74
2022/02/20 00:55:28;;;;;;;12.15;2.38;;;5.80;92.00;;;;;;4989844;28;20057;-74
2022/02/20 00:57:56;;;;;;;16.55;3.17;;;5.90;92.10;;;;;;4989390;28;20511;-74
2022/02/20 01:00:24;;;;;;;13.77;2.55;;;6.00;92.20;;;;;;4988803;28;20053;-75
2022/02/20 01:02:52;;;;;;;13.80;2.25;;;6.20;92.40;;;;;;4993366;28;20042;-75
2022/02/20 01:05:20;;;;;;;14.68;2.30;;;6.40;92.60;;;;;;4992851;28;20046;-75
2022/02/20 01:07:48;;;;;;;25.38;2.63;;;6.50;92.60;;;;;;4991271;28;20053;-74
2022/02/20 01:10:19;;;;;;;11.18;1.83;;;6.70;92.70;;;;;;4992222;28;20111;-75
2022/02/20 01:12:47;;;;;;;11.18;1.85;;;6.90;92.80;;;;;;4993111;28;20396;-74
2022/02/20 01:15:14;;;;;;;14.80;2.20;;;7.10;92.90;;;;;;4975377;28;20054;-75
2022/02/20 01:17:42;;;;;;;8.55;1.95;;;7.20;92.90;;;;;;4975640;28;20046;-75
2022/02/20 01:20:11;;;;;;;11.43;2.30;;;7.30;92.90;;;;;;4993996;28;20071;-75
2022/02/20 01:22:39;;;;;;;11.63;2.67;;;7.50;92.90;;;;;;4993905;28;20043;-74
2022/02/20 01:25:07;;;;;;;16.63;2.05;;;7.60;92.90;;;;;;4997099;28;20106;-73
2022/02/20 01:27:35;;;;;;;17.73;2.72;;;7.70;93.00;;;;;;4995474;28;20057;-74
2022/02/20 01:30:04;;;;;;;17.17;2.13;;;7.90;92.90;;;;;;4981203;28;20054;-75
2022/02/20 01:32:32;;;;;;;13.90;1.95;;;8.00;92.80;;;;;;4992291;28;20134;-74
2022/02/20 01:34:59;;;;;;;15.63;2.65;;;8.20;92.80;;;;;;4992177;28;20043;-74
2022/02/20 01:37:29;;;;;;;19.42;3.20;;;8.20;92.70;;;;;;4989936;28;20058;-74
2022/02/20 01:39:57;;;;;;;17.65;2.38;;;8.30;92.60;;;;;;4975398;28;20050;-73
2022/02/20 01:42:26;;;;;;;17.30;2.83;;;8.40;92.50;;;;;;4981886;28;20042;-73
2022/02/20 01:44:54;;;;;;;24.88;3.58;;;8.50;92.40;;;;;;4992392;28;20042;-73
2022/02/20 01:47:24;;;;;;;27.70;3.08;;;8.60;92.20;;;;;;4990653;28;20057;-72
2022/02/20 01:49:54;;;;;;;23.92;3.08;;;8.60;92.10;;;;;;4975466;28;20049;-73
2022/02/20 01:52:22;;;;;;;22.02;3.30;;;8.60;92.00;;;;;;4990899;28;20042;-72
2022/02/20 01:54:52;;;;;;;29.25;4.40;;;8.70;91.90;;;;;;4991149;28;20038;-71
2022/02/20 01:57:23;;;;;;;19.40;2.47;;;8.70;91.80;;;;;;4987671;28;20057;-71
2022/02/20 02:00:24;;;;;;;29.05;3.88;;;8.70;91.80;;;;;;4989434;28;20057;-71
2022/02/20 02:03:03;;;;;;;41.95;4.60;;;8.70;91.80;;;;;;4987462;28;20094;-71
2022/02/20 02:05:49;;;;;;;32.67;4.78;;;8.80;91.80;;;;;;4990920;28;20396;-71
2022/02/20 02:08:19;;;;;;;36.00;5.25;;;8.80;91.80;;;;;;4977233;28;20046;-72
2022/02/20 02:11:08;;;;;;;35.90;5.53;;;8.80;91.80;;;;;;4986057;28;20058;-72
2022/02/20 02:13:51;;;;;;;32.92;5.05;;;8.80;91.70;;;;;;4994169;28;20065;-71
2022/02/20 02:16:32;;;;;;;32.50;4.80;;;8.90;91.60;;;;;;4978248;28;20066;-72
2022/02/20 02:19:16;;;;;;;38.35;4.70;;;8.90;91.50;;;;;;4991350;28;20065;-72
2022/02/20 02:22:06;;;;;;;21.65;3.58;;;8.90;91.40;;;;;;4992109;28;20049;-72
2022/02/20 02:25:03;;;;;;;25.73;3.45;;;9.00;91.20;;;;;;4977568;28;20046;-72
2022/02/20 02:27:56;;;;;;;32.33;4.70;;;9.00;91.00;;;;;;4991700;28;20504;-73
2022/02/20 02:30:50;;;;;;;34.72;5.15;;;9.10;90.80;;;;;;4990989;28;20062;-74
2022/02/20 02:33:26;;;;;;;32.50;4.82;;;9.10;90.60;;;;;;4993789;28;20057;-76
2022/02/20 02:35:54;;;;;;;34.10;4.50;;;9.10;90.50;;;;;;4966102;28;20046;-74
2022/02/20 02:38:26;;;;;;;32.08;4.32;;;9.10;90.50;;;;;;4994111;28;20050;-74
2022/02/20 02:41:04;;;;;;;24.30;4.30;;;9.10;90.30;;;;;;4996951;28;20541;-74
2022/02/20 02:43:33;;;;;;;19.50;3.42;;;9.10;90.30;;;;;;4987819;28;20473;-74
2022/02/20 02:46:02;;;;;;;32.25;4.70;;;9.10;90.20;;;;;;4994033;28;20050;-75
2022/02/20 02:48:32;;;;;;;24.77;3.40;;;9.10;90.10;;;;;;4992640;28;20050;-75
2022/02/20 02:51:01;;;;;;;25.10;3.65;;;9.10;90.10;;;;;;4993822;28;20061;-75
2022/02/20 02:53:29;;;;;;;24.17;3.47;;;9.10;90.00;;;;;;4990990;28;20050;-74
2022/02/20 02:55:57;;;;;;;15.98;2.38;;;9.10;89.90;;;;;;4975805;28;20058;-74
2022/02/20 02:58:30;;;;;;;23.85;3.92;;;9.20;89.90;;;;;;4976910;28;20038;-75
2022/02/20 03:01:03;;;;;;;18.35;2.88;;;9.20;89.80;;;;;;4994135;28;20054;-74
2022/02/20 03:03:32;;;;;;;20.55;3.63;;;9.10;89.80;;;;;;4994361;28;20480;-74
2022/02/20 03:06:07;;;;;;;27.05;5.22;;;9.20;89.70;;;;;;4977157;28;20057;-74
2022/02/20 03:08:36;;;;;;;27.83;3.45;;;9.20;89.60;;;;;;5009964;28;20427;-74
2022/02/20 03:11:07;;;;;;;19.52;2.92;;;9.20;89.60;;;;;;4994746;28;20384;-74
2022/02/20 03:13:37;;;;;;;24.35;3.90;;;9.20;89.50;;;;;;4991690;28;20066;-74
2022/02/20 03:16:11;;;;;;;22.08;3.25;;;9.30;89.30;;;;;;4994290;28;20495;-74
2022/02/20 03:18:42;;;;;;;16.20;3.38;;;9.30;89.10;;;;;;4994299;28;20051;-73
2022/02/20 03:21:18;;;;;;;27.55;3.97;;;9.40;88.70;;;;;;4994084;28;20594;-75
2022/02/20 03:23:48;;;;;;;25.25;4.15;;;9.40;88.50;;;;;;4994051;28;20042;-75
2022/02/20 03:26:17;;;;;;;37.72;4.75;;;9.50;88.20;;;;;;4994254;28;20046;-75
2022/02/20 03:28:46;;;;;;;25.10;4.35;;;9.40;88.10;;;;;;4993769;28;20046;-75
2022/02/20 03:31:16;;;;;;;34.22;4.65;;;9.50;88.00;;;;;;4994015;28;20073;-75
2022/02/20 03:33:43;;;;;;;33.80;6.13;;;9.50;87.70;;;;;;4993778;28;20046;-76
2022/02/20 03:36:11;;;;;;;32.75;5.15;;;9.60;87.50;;;;;;4994523;28;20057;-75
2022/02/20 03:38:39;;;;;;;38.45;6.00;;;9.60;87.30;;;;;;4980118;28;20066;-74
2022/02/20 03:41:07;;;;;;;38.40;5.00;;;9.60;87.20;;;;;;4995449;28;20492;-74
2022/02/20 03:43:39;;;;;;;38.87;5.60;;;9.60;86.80;;;;;;4986581;28;20049;-75
2022/02/20 03:46:07;;;;;;;40.55;6.40;;;9.70;86.60;;;;;;4981342;28;20621;-75
2022/02/20 03:48:58;;;;;;;43.17;6.72;;;9.70;86.60;;;;;;4993218;28;20042;-75
2022/02/20 03:51:53;;;;;;;38.08;6.05;;;9.70;86.30;;;;;;4977004;28;20046;-75
2022/02/20 03:54:30;;;;;;;47.60;6.30;;;9.70;86.40;;;;;;4991717;28;20042;-75
2022/02/20 03:56:58;;;;;;;38.60;4.43;;;9.70;86.40;;;;;;4995706;28;20050;-75
2022/02/20 04:00:03;;;;;;;42.53;6.15;;;9.70;86.20;;;;;;4969595;28;20694;-75
2022/02/20 04:02:43;;;;;;;32.38;4.90;;;9.70;86.10;;;;;;4966962;28;20051;-75
2022/02/20 04:05:17;;;;;;;37.95;5.30;;;9.70;85.90;;;;;;4955531;28;20086;-74
2022/02/20 04:07:45;;;;;;;50.42;7.10;;;9.80;85.70;;;;;;4953874;28;20397;-74
2022/02/20 04:10:14;;;;;;;48.38;7.18;;;9.70;85.60;;;;;;4953766;28;20055;-75
2022/02/20 04:12:42;;;;;;;39.75;6.20;;;9.80;85.60;;;;;;4955754;28;20476;-74
2022/02/20 04:15:15;;;;;;;48.97;6.93;;;9.80;85.70;;;;;;4937596;29;20386;-75
2022/02/20 04:17:48;;;;;;;34.65;4.47;;;9.80;85.60;;;;;;4965551;28;20047;-75
2022/02/20 04:20:19;;;;;;;45.33;5.80;;;9.80;85.50;;;;;;4956216;28;20389;-75
2022/02/20 04:22:51;;;;;;;30.73;4.85;;;9.80;85.40;;;;;;4955590;28;20058;-74
2022/02/20 04:25:23;;;;;;;30.10;4.85;;;9.80;85.30;;;;;;4955247;28;20043;-74
2022/02/20 04:27:54;;;;;;;26.33;4.25;;;9.90;85.20;;;;;;4955415;28;20046;-73
2022/02/20 04:30:26;;;;;;;36.30;4.45;;;9.90;85.10;;;;;;4949795;29;20070;-74
2022/02/20 04:33:00;;;;;;;36.60;4.65;;;9.90;85.00;;;;;;4966353;28;20054;-75
2022/02/20 04:35:30;;;;;;;36.92;5.20;;;9.90;85.00;;;;;;4943037;28;20054;-75
2022/02/20 04:37:59;;;;;;;44.90;6.57;;;10.00;84.90;;;;;;4985924;28;20057;-75
2022/02/20 04:40:26;;;;;;;25.08;4.97;;;9.90;84.90;;;;;;4990436;28;20045;-75
2022/02/20 04:43:01;;;;;;;33.35;4.93;;;10.00;84.80;;;;;;4989867;28;20069;-75
2022/02/20 04:45:28;;;;;;;37.50;5.45;;;10.00;84.90;;;;;;4991847;28;20061;-75
2022/02/20 04:47:56;;;;;;;37.60;5.47;;;10.00;84.70;;;;;;4989124;28;20050;-75
2022/02/20 04:50:27;;;;;;;40.53;5.78;;;10.00;84.80;;;;;;4991891;28;20495;-75
2022/02/20 04:53:09;;;;;;;22.13;4.15;;;10.00;84.90;;;;;;4975947;28;20057;-74
2022/02/20 04:55:37;;;;;;;38.53;5.63;;;10.00;84.70;;;;;;4992188;28;20372;-74
2022/02/20 04:58:05;;;;;;;44.85;5.70;;;10.00;84.80;;;;;;4991876;28;20058;-74
2022/02/20 05:00:34;;;;;;;32.33;5.00;;;10.00;84.70;;;;;;4975389;28;20065;-74
2022/02/20 05:03:02;;;;;;;35.70;4.07;;;10.10;84.90;;;;;;4991586;28;20057;-74
2022/02/20 05:05:52;;;;;;;33.15;4.90;;;10.00;85.30;;;;;;4987689;28;20500;-73
2022/02/20 05:08:32;;;;;;;31.80;5.20;;;9.80;86.00;;;;;;4994787;28;20043;-72
2022/02/20 05:10:59;;;;;;;57.35;6.93;;;9.70;86.60;;;;;;4982441;28;20416;-72
2022/02/20 05:13:32;;;;;;;55.42;7.32;;;9.70;86.90;;;;;;4992590;28;20069;-72
2022/02/20 05:15:59;;;;;;;34.53;5.22;;;9.60;87.30;;;;;;4990908;28;20042;-72
2022/02/20 05:18:27;;;;;;;41.50;5.10;;;9.50;87.70;;;;;;4991003;28;20388;-72
2022/02/20 05:20:55;;;;;;;46.70;5.95;;;9.40;87.90;;;;;;4990413;28;20046;-72
2022/02/20 05:23:25;;;;;;;39.28;6.85;;;9.50;87.90;;;;;;4990120;28;20057;-73
2022/02/20 05:25:53;;;;;;;22.30;3.55;;;9.50;88.00;;;;;;4991349;28;20393;-72
2022/02/20 05:28:21;;;;;;;41.88;6.05;;;9.40;88.00;;;;;;4994371;28;20051;-73
2022/02/20 05:30:54;;;;;;;32.42;5.45;;;9.50;87.70;;;;;;4990959;28;20046;-72
2022/02/20 05:33:26;;;;;;;39.72;6.63;;;9.50;87.80;;;;;;4974935;28;20504;-72
2022/02/20 05:35:54;;;;;;;36.47;5.13;;;9.50;87.80;;;;;;4991368;28;20042;-72
2022/02/20 05:38:31;;;;;;;33.10;5.30;;;9.50;87.70;;;;;;4989961;28;20065;-73
2022/02/20 05:40:59;;;;;;;27.20;4.80;;;9.50;87.70;;;;;;4991249;28;20511;-73
2022/02/20 05:43:26;;;;;;;36.08;5.57;;;9.50;87.70;;;;;;4991282;28;20050;-73
2022/02/20 05:45:54;;;;;;;25.17;3.70;;;9.60;87.60;;;;;;4991274;28;20432;-73
2022/02/20 05:48:29;;;;;;;25.50;3.83;;;9.60;87.50;;;;;;4991395;28;20050;-74
2022/02/20 05:51:17;;;;;;;18.25;4.00;;;9.60;87.50;;;;;;4991241;28;20046;-72
2022/02/20 05:53:55;;;;;;;26.27;3.70;;;9.70;87.30;;;;;;4991453;28;20069;-72
2022/02/20 05:56:26;;;;;;;12.35;2.72;;;9.70;87.30;;;;;;4991003;28;20496;-73
2022/02/20 05:58:56;;;;;;;13.23;2.55;;;9.70;87.30;;;;;;4990371;28;20042;-73
2022/02/20 06:01:27;;;;;;;19.23;2.50;;;9.70;87.20;;;;;;4988976;28;20488;-72
2022/02/20 06:03:59;;;;;;;17.48;2.70;;;9.80;87.40;;;;;;4989430;28;20053;-73
2022/02/20 06:06:45;;;;;;;16.88;2.30;;;9.80;87.40;;;;;;4988535;28;20046;-75
2022/02/20 06:09:22;;;;;;;16.40;2.20;;;9.80;87.50;;;;;;4990629;28;20523;-74
2022/02/20 06:11:54;;;;;;;13.35;2.00;;;9.80;87.70;;;;;;4979929;28;20046;-74
2022/02/20 06:14:41;;;;;;;15.63;2.30;;;9.80;87.70;;;;;;4990048;28;20066;-74
2022/02/20 06:17:41;;;;;;;13.20;1.90;;;9.80;87.90;;;;;;4981248;28;20047;-75
2022/02/20 06:20:28;;;;;;;7.45;1.50;;;9.80;88.10;;;;;;4987962;28;20061;-74
2022/02/20 06:22:58;;;;;;;9.70;1.65;;;9.80;88.30;;;;;;4988215;28;20035;-73
2022/02/20 06:25:34;;;;;;;7.28;1.55;;;9.80;88.40;;;;;;4991010;28;20061;-74
2022/02/20 06:28:17;;;;;;;11.48;1.73;;;9.80;88.40;;;;;;4976122;28;20412;-74
2022/02/20 06:30:44;;;;;;;11.50;2.13;;;9.80;88.60;;;;;;4990771;28;20122;-74
2022/02/20 06:33:23;;;;;;;2.40;1.23;;;9.80;88.70;;;;;;4990955;28;20049;-73
2022/02/20 06:35:52;;;;;;;12.38;1.52;;;9.80;88.80;;;;;;4990621;28;20038;-73
2022/02/20 06:38:20;;;;;;;7.68;2.08;;;9.80;88.80;;;;;;4990769;28;20059;-74
2022/02/20 06:40:51;;;;;;;10.40;1.60;;;9.80;88.80;;;;;;4990934;28;20042;-74
2022/02/20 06:43:23;;;;;;;12.23;2.53;;;9.80;88.80;;;;;;4990576;28;20058;-74
2022/02/20 06:46:10;;;;;;;9.57;1.40;;;9.80;88.90;;;;;;4990423;28;20069;-74
2022/02/20 06:48:52;;;;;;;5.13;1.63;;;9.80;89.00;;;;;;4990638;28;20060;-73
2022/02/20 06:51:50;;;;;;;11.00;2.45;;;9.80;89.00;;;;;;4965724;28;20050;-74
2022/02/20 06:54:36;;;;;;;12.05;1.88;;;9.90;88.90;;;;;;4995570;28;20057;-75
2022/02/20 06:57:27;;;;;;;10.98;1.92;;;9.90;88.90;;;;;;4994178;28;20125;-75
2022/02/20 06:59:54;;;;;;;13.98;3.08;;;9.90;89.00;;;;;;4993961;28;20043;-75
2022/02/20 07:02:22;;;;;;;10.10;1.20;;;9.90;89.00;;;;;;4995204;28;20050;-75
2022/02/20 07:04:49;;;;;;;10.23;2.20;;;9.90;89.00;;;;;;4994753;28;20042;-75
2022/02/20 07:07:17;;;;;;;10.90;1.88;;;10.00;88.90;;;;;;4995166;28;20061;-75
2022/02/20 07:09:45;;;;;;;14.70;2.28;;;9.90;89.00;;;;;;4994369;28;20392;-76
2022/02/20 07:12:12;;;;;;;11.95;1.98;;;10.00;88.90;;;;;;4995051;28;20041;-76
2022/02/20 07:14:40;;;;;;;12.45;1.48;;;10.00;88.90;;;;;;4995434;28;20061;-75
2022/02/20 07:17:07;;;;;;;11.23;2.20;;;10.10;88.80;;;;;;4995093;28;20038;-75
2022/02/20 07:19:35;;;;;;;17.83;2.85;;;10.20;88.60;;;;;;4994708;28;20047;-76
2022/02/20 07:22:03;;;;;;;6.80;1.20;;;10.10;88.60;;;;;;4995232;28;20068;-75
2022/02/20 07:24:30;;;;;;;13.98;2.05;;;10.20;88.50;;;;;;5007925;28;20058;-76
2022/02/20 07:26:58;;;;;;;12.50;2.40;;;10.20;88.40;;;;;;4994571;28;20453;-75
2022/02/20 07:29:25;;;;;;;15.23;2.50;;;10.20;88.50;;;;;;4994451;28;20051;-75
2022/02/20 07:31:53;;;;;;;11.80;2.38;;;10.20;88.50;;;;;;4998732;28;20042;-76
2022/02/20 07:34:21;;;;;;;16.05;2.38;;;10.20;88.60;;;;;;4992870;28;20063;-75
2022/02/20 07:36:48;;;;;;;22.60;2.90;;;10.30;88.60;;;;;;4992906;28;20377;-74
2022/02/20 07:39:16;;;;;;;20.95;3.25;;;10.30;88.60;;;;;;4992332;28;20077;-75
2022/02/20 07:41:44;;;;;;;13.02;2.08;;;10.30;88.70;;;;;;4995013;28;20046;-74
2022/02/20 07:44:11;;;;;;;16.20;2.97;;;10.20;88.70;;;;;;4993532;28;20053;-75
2022/02/20 07:46:39;;;;;;;9.68;2.55;;;10.30;88.70;;;;;;5000649;28;20053;-75
2022/02/20 07:49:07;;;;;;;14.73;2.88;;;10.30;88.60;;;;;;4988522;28;20039;-74
2022/02/20 07:51:34;;;;;;;16.33;2.35;;;10.30;88.50;;;;;;4988053;28;20057;-73
2022/02/20 07:54:02;;;;;;;13.52;2.80;;;10.30;88.50;;;;;;4993271;28;20046;-74
2022/02/20 07:56:30;;;;;;;18.00;3.13;;;10.30;88.50;;;;;;4992908;28;20155;-74
2022/02/20 07:58:57;;;;;;;19.10;3.33;;;10.30;88.60;;;;;;4992313;28;20054;-74
2022/02/20 08:01:25;;;;;;;14.95;2.30;;;10.30;88.60;;;;;;4990963;28;20038;-75
2022/02/20 08:03:53;;;;;;;11.13;2.08;;;10.30;88.70;;;;;;4991850;28;20515;-74
2022/02/20 08:06:21;;;;;;;24.42;4.10;;;10.30;88.70;;;;;;4992605;28;20050;-74
2022/02/20 08:08:50;;;;;;;13.55;2.88;;;10.30;88.70;;;;;;4988823;28;20054;-74
2022/02/20 08:11:18;;;;;;;20.58;2.90;;;10.30;88.90;;;;;;5006840;28;20051;-75
2022/02/20 08:13:46;;;;;;;22.95;4.43;;;10.30;89.10;;;;;;4993449;28;20046;-75
2022/02/20 08:16:13;;;;;;;18.55;3.33;;;10.30;89.20;;;;;;4994135;28;20061;-73
2022/02/20 08:18:41;;;;;;;19.67;3.63;;;10.20;89.30;;;;;;4992791;28;20038;-74
2022/02/20 08:21:09;;;;;;;12.82;2.95;;;10.20;89.60;;;;;;4994204;28;20057;-74
2022/02/20 08:23:46;;;;;;;22.45;3.15;;;10.20;89.50;;;;;;4992487;28;20046;-74
2022/02/20 08:26:16;;;;;;;12.77;2.77;;;10.20;89.50;;;;;;4985953;28;20053;-73
2022/02/20 08:28:45;;;;;;;13.55;3.05;;;10.20;89.50;;;;;;4992633;28;20772;-72
2022/02/20 08:31:13;;;;;;;21.73;4.15;;;10.20;89.50;;;;;;4993866;28;20054;-72
2022/02/20 08:33:42;;;;;;;24.45;2.42;;;10.20;89.50;;;;;;4989181;28;20053;-72
2022/02/20 08:36:16;;;;;;;13.18;2.70;;;10.30;89.50;;;;;;4993066;28;20054;-73
2022/02/20 08:38:44;;;;;;;20.77;2.60;;;10.20;89.50;;;;;;4992307;28;20050;-72
2022/02/20 08:41:12;;;;;;;17.02;3.00;;;10.30;89.50;;;;;;4992339;28;20057;-72
2022/02/20 08:43:40;;;;;;;14.80;2.60;;;10.30;89.50;;;;;;4993299;28;20053;-72
2022/02/20 08:46:08;;;;;;;16.48;3.15;;;10.20;89.50;;;;;;4992488;28;20050;-73
2022/02/20 08:48:36;;;;;;;13.68;2.47;;;10.20;89.50;;;;;;4991090;28;20046;-74
2022/02/20 08:51:06;;;;;;;19.25;2.67;;;10.30;89.50;;;;;;4991175;28;20050;-74
2022/02/20 08:53:35;;;;;;;17.20;3.05;;;10.30;89.50;;;;;;4986479;28;20062;-74
2022/02/20 08:56:07;;;;;;;14.55;3.03;;;10.30;89.50;;;;;;5004280;28;20400;-74
2022/02/20 08:58:36;;;;;;;16.10;3.30;;;10.30;89.40;;;;;;4992092;28;20057;-74
2022/02/20 09:01:04;;;;;;;15.40;2.65;;;10.30;89.50;;;;;;4992973;28;20050;-73
2022/02/20 09:03:32;;;;;;;17.45;2.78;;;10.30;89.50;;;;;;5007219;28;20484;-73
2022/02/20 09:06:01;;;;;;;16.48;3.65;;;10.30;89.50;;;;;;4992036;28;20057;-72
2022/02/20 09:08:30;;;;;;;15.20;2.90;;;10.30;89.50;;;;;;4976830;28;20046;-72
2022/02/20 09:10:58;;;;;;;10.45;1.58;;;10.30;89.40;;;;;;4991366;28;20046;-71
2022/02/20 09:13:25;;;;;;;15.52;3.10;;;10.40;89.40;;;;;;4992188;28;20038;-73
2022/02/20 09:15:54;;;;;;;20.92;3.00;;;10.30;89.30;;;;;;4984429;28;20110;-71
2022/02/20 09:18:22;;;;;;;16.20;2.88;;;10.30;89.40;;;;;;4984854;28;20065;-73
2022/02/20 09:20:50;;;;;;;16.50;3.50;;;10.30;89.30;;;;;;4987260;28;20489;-74
2022/02/20 09:23:19;;;;;;;18.02;3.70;;;10.30;89.30;;;;;;4988418;28;20046;-75
2022/02/20 09:25:47;;;;;;;13.75;3.17;;;10.30;89.40;;;;;;4985728;28;20043;-73
2022/02/20 09:28:14;;;;;;;16.98;2.72;;;10.30;89.40;;;;;;4984264;28;20054;-74
2022/02/20 09:30:45;;;;;;;10.18;2.63;;;10.40;89.30;;;;;;4988205;28;20054;-74
2022/02/20 09:33:14;;;;;;;21.55;2.35;;;10.40;89.20;;;;;;4982276;28;20055;-74
2022/02/20 09:35:43;;;;;;;22.75;3.33;;;10.40;89.20;;;;;;4989036;28;20050;-74
2022/02/20 09:38:14;;;;;;;17.48;3.03;;;10.40;89.20;;;;;;4982599;28;20039;-75
2022/02/20 09:40:43;;;;;;;13.35;2.80;;;10.50;89.00;;;;;;4984646;28;20484;-76
2022/02/20 09:43:15;;;;;;;12.85;2.00;;;10.50;88.90;;;;;;4985145;28;20038;-75
2022/02/20 09:45:48;;;;;;;15.85;2.58;;;10.60;88.80;;;;;;4996489;28;20392;-75
2022/02/20 09:48:17;;;;;;;13.73;2.47;;;10.60;88.80;;;;;;5003457;28;20623;-76
2022/02/20 09:50:45;;;;;;;14.00;2.92;;;10.60;88.80;;;;;;4993108;28;20062;-76
2022/02/20 09:53:14;;;;;;;15.38;2.38;;;10.70;88.60;;;;;;5005725;28;20053;-77
2022/02/20 09:55:49;;;;;;;16.10;2.35;;;10.70;88.50;;;;;;4993431;28;20055;-77
2022/02/20 09:58:17;;;;;;;8.77;1.75;;;10.70;88.40;;;;;;4990728;28;20049;-75
2022/02/20 10:00:56;;;;;;;15.63;2.28;;;10.70;88.30;;;;;;4993994;28;20514;-74
2022/02/20 10:03:48;;;;;;;9.68;1.92;;;10.80;88.20;;;;;;4993063;28;20615;-75
2022/02/20 10:06:21;;;;;;;8.23;2.25;;;10.80;88.00;;;;;;4984898;28;20046;-73
2022/02/20 10:08:51;;;;;;;7.50;1.93;;;10.90;87.90;;;;;;4990116;28;20049;-74
2022/02/20 10:11:28;;;;;;;16.27;1.92;;;11.00;87.70;;;;;;4991044;28;20069;-74
2022/02/20 10:14:02;;;;;;;20.42;4.15;;;11.00;87.60;;;;;;4991744;28;20048;-77
2022/02/20 10:16:32;;;;;;;9.57;2.00;;;11.00;87.50;;;;;;4992485;28;20511;-73
2022/02/20 10:19:01;;;;;;;20.10;2.25;;;11.00;87.60;;;;;;4990174;28;20054;-72
2022/02/20 10:21:47;;;;;;;16.45;2.35;;;11.00;87.40;;;;;;4991353;28;20042;-72
2022/02/20 10:24:33;;;;;;;16.98;3.75;;;11.10;87.40;;;;;;4991409;28;20502;-75
2022/02/20 10:27:10;;;;;;;13.43;2.70;;;11.10;87.30;;;;;;4997270;28;20053;-75
2022/02/20 10:29:38;;;;;;;15.13;2.88;;;11.20;87.00;;;;;;4995793;28;20062;-75
2022/02/20 10:32:06;;;;;;;16.95;2.85;;;11.20;87.10;;;;;;5001098;28;20069;-74
2022/02/20 10:34:37;;;;;;;9.60;2.25;;;11.20;87.10;;;;;;4990181;28;20403;-74
2022/02/20 10:37:05;;;;;;;19.90;3.10;;;11.20;87.10;;;;;;4995603;28;20058;-74
2022/02/20 10:39:34;;;;;;;18.65;3.15;;;11.20;87.10;;;;;;5010398;28;20053;-75
2022/02/20 10:42:02;;;;;;;13.88;2.95;;;11.30;87.10;;;;;;4995755;28;20061;-75
2022/02/20 10:44:29;;;;;;;20.08;3.42;;;11.30;87.00;;;;;;4996026;28;20046;-74
2022/02/20 10:47:14;;;;;;;19.60;3.50;;;11.30;87.00;;;;;;4996404;28;20054;-74
2022/02/20 10:49:42;;;;;;;14.35;2.75;;;11.30;87.10;;;;;;4996001;28;20069;-74
2022/02/20 10:52:32;;;;;;;12.85;2.63;;;11.30;87.10;;;;;;4995997;28;20054;-75
2022/02/20 10:55:06;;;;;;;12.95;2.72;;;11.30;86.80;;;;;;4996645;28;20046;-76
2022/02/20 10:57:49;;;;;;;12.73;2.40;;;11.30;86.80;;;;;;4995395;28;20050;-75
2022/02/20 11:00:20;;;;;;;15.93;2.47;;;11.30;86.80;;;;;;4995960;28;20376;-76
2022/02/20 11:03:06;;;;;;;15.88;2.67;;;11.30;86.70;;;;;;4994734;28;20419;-76
2022/02/20 11:05:35;;;;;;;11.57;2.60;;;11.30;86.70;;;;;;4995409;28;20062;-75
2022/02/20 11:08:08;;;;;;;16.90;2.67;;;11.30;86.70;;;;;;4995673;28;20045;-76
2022/02/20 11:10:39;;;;;;;13.10;2.58;;;11.40;86.40;;;;;;4990098;28;20046;-75
2022/02/20 11:13:12;;;;;;;9.68;1.60;;;11.40;86.40;;;;;;4985762;28;20050;-75
2022/02/20 11:15:41;;;;;;;9.98;1.20;;;11.50;86.40;;;;;;4982896;28;20974;-74
2022/02/20 11:18:16;;;;;;;9.57;2.10;;;11.50;86.20;;;;;;4985463;28;20061;-75
2022/02/20 11:20:46;;;;;;;11.35;2.05;;;11.50;86.20;;;;;;4987293;28;20053;-75
2022/02/20 11:23:28;;;;;;;7.40;1.60;;;11.50;86.30;;;;;;4982976;28;20047;-75
2022/02/20 11:25:59;;;;;;;2.40;0.73;;;11.60;86.10;;;;;;4991448;28;20046;-75
2022/02/20 11:28:27;;;;;;;11.68;2.20;;;11.60;85.80;;;;;;4964416;28;20048;-75
2022/02/20 11:30:55;;;;;;;11.18;2.08;;;11.60;85.70;;;;;;4989286;28;20053;-75
2022/02/20 11:33:25;;;;;;;5.70;1.08;;;11.60;85.80;;;;;;4985198;28;20047;-75
2022/02/20 11:35:52;;;;;;;9.70;2.33;;;11.70;85.60;;;;;;4992173;28;20061;-74
2022/02/20 11:38:24;;;;;;;7.18;1.65;;;11.70;85.60;;;;;;4988464;28;20381;-74
2022/02/20 11:40:55;;;;;;;6.82;1.83;;;11.70;85.70;;;;;;4992678;28;20464;-75
2022/02/20 11:43:49;;;;;;;4.63;1.08;;;11.70;85.50;;;;;;4993242;28;20050;-75
2022/02/20 11:46:20;;;;;;;3.35;1.27;;;11.80;85.40;;;;;;4993188;28;20495;-75
2022/02/20 11:49:03;;;;;;;7.55;1.60;;;11.80;85.40;;;;;;4993918;28;20057;-75
2022/02/20 11:51:33;;;;;;;10.25;1.92;;;11.80;85.50;;;;;;5004341;28;20484;-75
2022/02/20 11:54:18;;;;;;;4.75;1.30;;;11.80;85.20;;;;;;4995806;28;20046;-76
2022/02/20 11:57:26;;;;;;;4.82;1.25;;;11.80;85.00;;;;;;4996726;28;20046;-75
2022/02/20 12:00:03;;;;;;;8.18;1.40;;;11.80;85.00;;;;;;4994195;28;20050;-75
2022/02/20 12:03:00;;;;;;;6.60;1.20;;;11.80;84.90;;;;;;4993495;28;20053;-76
2022/02/20 12:05:29;;;;;;;6.40;1.35;;;11.80;84.90;;;;;;4997074;28;20030;-75
2022/02/20 12:07:56;;;;;;;6.18;1.75;;;11.80;84.50;;;;;;4997003;28;20065;-74
2022/02/20 12:10:24;;;;;;;12.52;1.20;;;11.80;84.90;;;;;;4993258;28;20050;-74
2022/02/20 12:12:57;;;;;;;3.60;0.90;;;11.80;84.80;;;;;;4993122;28;20046;-74
2022/02/20 12:15:32;;;;;;;6.60;1.25;;;11.80;84.70;;;;;;4992821;28;20499;-74
2022/02/20 12:18:12;;;;;;;7.07;1.52;;;11.90;84.60;;;;;;4986289;28;20404;-75
2022/02/20 12:20:53;;;;;;;7.35;1.65;;;11.90;84.70;;;;;;4988535;28;20054;-76
2022/02/20 12:23:27;;;;;;;6.13;1.33;;;11.90;84.70;;;;;;4975234;28;20526;-75
2022/02/20 12:26:00;;;;;;;9.52;1.73;;;11.90;84.90;;;;;;4993897;28;20472;-75
2022/02/20 12:28:34;;;;;;;9.65;1.80;;;11.80;85.10;;;;;;4989959;28;20049;-75
2022/02/20 12:31:08;;;;;;;6.60;1.20;;;11.80;85.40;;;;;;4987063;28;20389;-75
2022/02/20 12:33:38;;;;;;;5.85;1.42;;;11.80;85.60;;;;;;4985510;28;20054;-75
2022/02/20 12:36:06;;;;;;;8.40;1.48;;;11.60;86.00;;;;;;4990766;28;20069;-75
2022/02/20 12:38:33;;;;;;;9.75;1.70;;;11.50;86.60;;;;;;4990083;28;20051;-75
2022/02/20 12:41:01;;;;;;;7.75;1.30;;;11.40;87.10;;;;;;4993363;28;20046;-75
2022/02/20 12:43:29;;;;;;;5.72;1.15;;;11.30;87.40;;;;;;4995620;28;20061;-75
2022/02/20 12:45:58;;;;;;;5.00;0.95;;;11.30;87.60;;;;;;4983377;28;20049;-74
2022/02/20 12:48:26;;;;;;;6.28;1.10;;;11.30;87.60;;;;;;4992770;28;20046;-74
2022/02/20 12:50:56;;;;;;;2.92;0.73;;;11.30;87.60;;;;;;4999771;28;20052;-74
2022/02/20 12:53:24;;;;;;;8.05;1.35;;;11.30;87.90;;;;;;4994820;28;20050;-74
2022/02/20 12:55:55;;;;;;;3.78;0.60;;;11.30;88.00;;;;;;4991384;28;20042;-72
2022/02/20 12:58:24;;;;;;;3.90;1.40;;;11.20;88.20;;;;;;4989947;28;20050;-72
2022/02/20 13:00:52;;;;;;;7.38;1.20;;;11.20;88.40;;;;;;4992794;28;20047;-72
2022/02/20 13:03:22;;;;;;;11.20;2.00;;;11.10;88.70;;;;;;4991619;28;20058;-71
2022/02/20 13:05:52;;;;;;;9.25;1.48;;;11.10;88.70;;;;;;4994331;28;20038;-71
2022/02/20 13:08:24;;;;;;;6.97;1.55;;;11.00;88.90;;;;;;4981663;28;20526;-72